Time;durP1;ratioP1;P1;durP2;ratioP2;P2;SDS_P1;SDS_P2;PMS_P1;PMS_P2;Temp;Humidity;BMP_temperature;BMP_pressure;BME280_temperature;BME280_humidity;BME280_pressure;Samples;Min_cycle;Max_cycle;Signal;HPM_P1;HPM_P2
2021/05/26 00:00:58;;;;;;;;;0.00;0.00;;;;;21.67;36.87;101348.31;5116989;27;45525;-56
2021/05/26 00:03:25;;;;;;;;;0.00;0.00;;;;;21.66;37.18;101343.94;5116974;27;45704;-56
2021/05/26 00:05:50;;;;;;;;;0.00;0.00;;;;;21.64;36.94;101342.22;5116680;27;45465;-59
2021/05/26 00:08:33;;;;;;;;;0.50;0.00;;;;;21.66;37.18;101335.97;5113445;27;45457;-58
2021/05/26 00:11:05;;;;;;;;;0.00;0.00;;;;;21.65;36.99;101327.13;5075711;28;45746;-58
2021/05/26 00:13:30;;;;;;;;;0.00;0.00;;;;;21.63;37.28;101327.25;5075989;28;45736;-56
2021/05/26 00:15:56;;;;;;;;;0.00;0.00;;;;;21.62;37.17;101325.56;5074575;28;47065;-60
2021/05/26 00:18:23;;;;;;;;;0.00;0.00;;;;;21.62;37.27;101311.41;5074860;28;45528;-58
2021/05/26 00:20:50;;;;;;;;;0.00;0.00;;;;;21.61;37.40;101315.88;5074576;28;45692;-55
2021/05/26 00:23:16;;;;;;;;;0.00;0.00;;;;;21.61;37.15;101294.63;5082900;27;45839;-58
2021/05/26 00:25:41;;;;;;;;;0.00;0.00;;;;;21.55;37.25;101286.22;5116278;27;45899;-58
2021/05/26 00:28:07;;;;;;;;;0.00;0.00;;;;;21.61;37.02;101297.28;5115474;27;45562;-58
2021/05/26 00:30:36;;;;;;;;;0.00;0.00;;;;;21.61;37.29;101289.31;5108849;27;45480;-58
2021/05/26 00:33:02;;;;;;;;;0.00;0.00;;;;;21.61;37.31;101280.47;5095689;27;45488;-58
2021/05/26 00:35:28;;;;;;;;;0.00;0.00;;;;;21.62;37.10;101282.16;5095428;27;45645;-58
2021/05/26 00:37:54;;;;;;;;;0.00;0.00;;;;;21.60;37.07;101269.00;5076751;27;45430;-61
2021/05/26 00:40:19;;;;;;;;;0.00;0.00;;;;;21.64;37.21;101274.94;5095325;27;45623;-58
2021/05/26 00:42:45;;;;;;;;;0.00;0.00;;;;;21.59;37.46;101256.66;5095529;27;45744;-58
2021/05/26 00:45:14;;;;;;;;;0.00;0.00;;;;;21.64;37.26;101265.13;5095373;27;46155;-58
2021/05/26 00:47:43;;;;;;;;;0.00;0.00;;;;;21.65;37.35;101258.03;5095641;27;45545;-58
2021/05/26 00:50:12;;;;;;;;;0.00;0.00;;;;;21.67;37.36;101249.94;5094526;27;45694;-58
2021/05/26 00:52:38;;;;;;;;;0.00;0.00;;;;;21.66;37.08;101242.94;5095693;27;45447;-58
2021/05/26 00:55:06;;;;;;;;;0.00;0.00;;;;;21.67;37.29;101241.97;5095157;27;47194;-58
2021/05/26 00:57:32;;;;;;;;;0.00;0.00;;;;;21.66;37.26;101235.78;5093737;27;45503;-58
2021/05/26 00:59:58;;;;;;;;;0.75;0.00;;;;;21.65;37.13;101231.44;5073739;28;45579;-60
2021/05/26 01:02:24;;;;;;;;;0.00;0.00;;;;;21.67;37.26;101226.84;5074861;28;45427;-58
2021/05/26 01:04:49;;;;;;;;;0.00;0.00;;;;;21.67;37.27;101215.38;5074611;28;47121;-58
2021/05/26 01:07:15;;;;;;;;;0.50;0.00;;;;;21.67;37.28;101228.69;5074772;28;45454;-58
2021/05/26 01:09:41;;;;;;;;;0.00;0.00;;;;;21.67;37.02;101216.22;5074918;28;45469;-58
2021/05/26 01:12:07;;;;;;;;;0.00;0.00;;;;;21.68;37.31;101207.31;5073552;28;45545;-58
2021/05/26 01:14:34;;;;;;;;;0.00;0.00;;;;;21.69;37.17;101206.34;5074619;28;46358;-58
2021/05/26 01:17:00;;;;;;;;;0.00;0.00;;;;;21.70;37.12;101218.66;5074252;28;45594;-58
2021/05/26 01:19:25;;;;;;;;;0.00;0.00;;;;;21.70;37.15;101202.72;5074356;28;45448;-58
2021/05/26 01:21:52;;;;;;;;;0.25;0.00;;;;;21.69;37.32;101194.84;5074693;28;45612;-59
2021/05/26 01:24:18;;;;;;;;;0.00;0.00;;;;;21.70;36.98;101184.09;5073266;28;47188;-58
2021/05/26 01:26:45;;;;;;;;;0.00;0.00;;;;;21.71;37.37;101190.31;5056301;28;46060;-58
2021/05/26 01:29:16;;;;;;;;;0.00;0.00;;;;;21.71;37.04;101182.34;5074419;28;45775;-58
2021/05/26 01:31:43;;;;;;;;;0.00;0.00;;;;;21.72;37.03;101181.38;5074425;27;45567;-58
2021/05/26 01:34:09;;;;;;;;;0.00;0.00;;;;;21.73;37.06;101183.06;5072845;28;46203;-58
2021/05/26 01:36:39;;;;;;;;;0.00;0.00;;;;;21.71;36.88;101175.19;5074137;28;45560;-58
2021/05/26 01:39:05;;;;;;;;;0.00;0.00;;;;;21.73;37.03;101170.63;5074041;28;46069;-58
2021/05/26 01:41:32;;;;;;;;;0.00;0.00;;;;;21.74;37.04;101174.13;5074497;28;45570;-58
2021/05/26 01:43:57;;;;;;;;;0.00;0.00;;;;;21.75;36.92;101165.19;5072633;28;46282;-60
2021/05/26 01:46:25;;;;;;;;;0.00;0.00;;;;;21.67;37.07;101152.41;5084055;27;45718;-58
2021/05/26 01:48:52;;;;;;;;;0.00;0.00;;;;;21.71;37.24;101164.56;5094664;27;45814;-58
2021/05/26 01:51:18;;;;;;;;;0.00;0.00;;;;;21.75;37.32;101158.06;5094672;27;45921;-58
2021/05/26 01:53:44;;;;;;;;;0.00;0.00;;;;;21.76;37.06;101159.75;5094344;27;47384;-58
2021/05/26 01:56:21;;;;;;;;;0.00;0.00;;;;;21.77;37.30;101160.63;5093210;27;45721;-58
2021/05/26 01:58:50;;;;;;;;;0.00;0.00;;;;;21.67;36.93;101139.13;5094564;27;45491;-58
2021/05/26 02:01:17;;;;;;;;;0.00;0.00;;;;;21.80;37.10;101144.41;5093830;27;45418;-58
2021/05/26 02:03:44;;;;;;;;;0.00;0.00;;;;;21.79;36.86;101147.22;5094277;27;45936;-58
2021/05/26 02:06:12;;;;;;;;;0.00;0.00;;;;;21.80;37.13;101149.75;5093040;27;45625;-58
2021/05/26 02:08:38;;;;;;;;;0.00;0.00;;;;;21.80;37.04;101136.44;5093222;27;45475;-58
2021/05/26 02:13:53;;;;;;;;;0.00;0.00;;;;;21.82;37.24;101139.00;5093947;27;45927;-59
2021/05/26 02:16:18;;;;;;;;;0.00;0.00;;;;;21.83;37.29;101135.38;5093029;27;45661;-58
2021/05/26 02:18:44;;;;;;;;;0.00;0.00;;;;;21.82;36.72;101128.38;5093956;27;45481;-57
2021/05/26 02:21:10;;;;;;;;;0.00;0.00;;;;;21.82;37.18;101125.69;5094190;27;45517;-57
2021/05/26 02:23:35;;;;;;;;;0.00;0.00;;;;;21.83;36.83;101119.41;5075412;27;49820;-57
2021/05/26 02:26:01;;;;;;;;;0.00;0.00;;;;;21.82;36.87;101112.41;5092950;27;45766;-57
2021/05/26 02:28:27;;;;;;;;;0.00;0.00;;;;;21.83;36.95;101114.97;5094172;27;45548;-58
2021/05/26 02:30:52;;;;;;;;;0.00;0.00;;;;;21.79;37.28;101102.03;5083699;27;45447;-57
2021/05/26 02:33:18;;;;;;;;;0.00;0.00;;;;;21.78;36.94;101087.88;5073297;28;47179;-57
2021/05/26 02:35:44;;;;;;;;;0.00;0.00;;;;;21.83;37.25;101103.47;5073072;28;45618;-57
2021/05/26 02:38:09;;;;;;;;;0.00;0.00;;;;;21.83;37.02;101103.47;5072058;28;45498;-57
2021/05/26 02:40:36;;;;;;;;;0.75;0.00;;;;;21.82;36.99;101102.63;5073413;28;45445;-57
2021/05/26 02:43:02;;;;;;;;;0.00;0.00;;;;;21.78;37.07;101101.16;5072690;28;46104;-56
2021/05/26 02:45:28;;;;;;;;;0.00;0.00;;;;;21.82;37.21;101093.78;5072511;28;45497;-56
2021/05/26 02:47:54;;;;;;;;;0.00;0.00;;;;;21.81;36.75;101087.66;5072901;28;45407;-59
2021/05/26 02:50:20;;;;;;;;;0.00;0.00;;;;;21.81;37.22;101089.44;5072971;28;45558;-56
2021/05/26 02:52:46;;;;;;;;;0.00;0.00;;;;;21.81;37.11;101086.78;5072883;28;48181;-57
2021/05/26 02:55:14;;;;;;;;;0.00;0.00;;;;;21.81;37.06;101092.09;5072825;28;45516;-56
2021/05/26 02:57:40;;;;;;;;;0.00;0.00;;;;;21.75;36.92;101080.97;5073329;28;45509;-57
2021/05/26 03:00:08;;;;;;;;;0.00;0.00;;;;;21.81;37.18;101089.44;5071979;28;45493;-57
2021/05/26 03:02:33;;;;;;;;;0.00;0.00;;;;;21.80;37.30;101090.41;5072781;28;47078;-57
2021/05/26 03:04:59;;;;;;;;;0.00;0.00;;;;;21.80;37.26;101093.06;5072802;28;45701;-57
2021/05/26 03:07:24;;;;;;;;;0.00;0.00;;;;;21.78;37.19;101085.22;5073067;28;45499;-57
2021/05/26 03:09:50;;;;;;;;;0.00;0.00;;;;;21.75;37.10;101080.97;5085020;27;45754;-58
2021/05/26 03:12:16;;;;;;;;;0.00;0.00;;;;;21.79;37.40;101091.38;5091969;27;46212;-57
2021/05/26 03:14:41;;;;;;;;;0.00;0.00;;;;;21.78;37.16;101090.53;5092892;27;45571;-56
2021/05/26 03:17:07;;;;;;;;;0.00;0.00;;;;;21.77;37.04;101084.34;5092280;27;45657;-56
2021/05/26 03:19:32;;;;;;;;;0.00;0.00;;;;;21.76;37.12;101082.66;5093328;27;45930;-56
2021/05/26 03:21:59;;;;;;;;;0.00;0.00;;;;;21.77;37.00;101078.19;5091894;27;46206;-57
2021/05/26 03:24:25;;;;;;;;;0.00;0.00;;;;;21.77;37.01;101086.19;5093069;27;45800;-57
2021/05/26 03:27:34;;;;;;;;;0.00;0.00;;;;;21.78;37.22;101085.22;5093328;27;45725;-57
2021/05/26 03:30:42;;;;;;;;;0.00;0.00;;;;;21.79;37.03;101080.75;5074543;27;45667;-57
2021/05/26 03:34:12;;;;;;;;;0.00;0.00;;;;;21.79;36.97;101078.91;5071814;27;45533;-57
2021/05/26 03:37:57;;;;;;;;;0.00;0.00;;;;;21.80;37.20;101074.47;5032481;28;45539;-57
2021/05/26 03:40:46;;;;;;;;;0.00;0.00;;;;;21.81;37.09;101074.34;5064742;28;45544;-57
2021/05/26 03:44:10;;;;;;;;;0.00;0.00;;;;;21.82;37.05;101056.56;5039314;28;45818;-56
2021/05/26 03:47:57;;;;;;;;;0.00;0.00;;;;;21.82;37.16;101059.22;5071929;28;45489;-57
2021/05/26 03:58:19;;;;;;;;;0.00;0.00;;;;;21.81;37.12;101066.38;5005138;28;45632;-56
2021/05/26 04:05:11;;;;;;;;;0.00;0.00;;;;;21.80;37.41;101061.16;4957283;28;45827;-56
2021/05/26 04:08:05;;;;;;;;;0.00;0.00;;;;;21.79;37.06;101062.97;4972561;28;45536;-58
2021/05/26 04:11:36;;;;;;;;;0.00;0.00;;;;;21.79;37.20;101062.16;4968758;28;45798;-57
2021/05/26 04:15:24;;;;;;;;;0.75;0.00;;;;;21.78;37.20;101050.66;4933543;28;45922;-57
2021/05/26 04:19:02;;;;;;;;;0.00;0.00;;;;;21.76;37.44;101058.72;4856729;29;45636;-57
2021/05/26 04:22:04;;;;;;;;;0.00;0.00;;;;;21.77;37.43;101064.91;4862055;29;45700;-56
2021/05/26 04:25:03;;;;;;;;;0.00;0.00;;;;;21.75;37.55;101058.84;4839631;29;45635;-57
2021/05/26 04:32:05;;;;;;;;;0.00;0.00;;;;;21.75;37.32;101059.69;4808795;29;45670;-58
2021/05/26 04:35:41;;;;;;;;;0.00;0.00;;;;;21.75;37.31;101061.50;4802636;29;45554;-57
2021/05/26 04:42:21;;;;;;;;;0.00;0.00;;;;;21.75;37.20;101056.19;4839127;29;45871;-57
2021/05/26 04:45:38;;;;;;;;;0.00;0.00;;;;;21.75;37.39;101056.19;4820754;29;45870;-57
2021/05/26 04:48:33;;;;;;;;;0.00;0.00;;;;;21.74;37.62;101055.34;4838675;29;46004;-57
2021/05/26 04:52:02;;;;;;;;;0.00;0.00;;;;;21.73;37.31;101063.44;4875415;29;45579;-57
2021/05/26 05:05:02;;;;;;;;;0.50;0.00;;;;;21.74;37.78;101089.91;4914552;28;45497;-58
2021/05/26 05:08:41;;;;;;;;;0.00;0.00;;;;;21.74;38.21;101105.88;4916827;28;45553;-56
2021/05/26 05:11:57;;;;;;;;;0.00;0.00;;;;;21.72;38.19;101109.59;4933239;28;45970;-57
2021/05/26 05:15:40;;;;;;;;;0.00;0.00;;;;;21.76;38.42;101121.72;4966915;28;45571;-56
2021/05/26 05:22:38;;;;;;;;;0.00;0.00;;;;;21.79;38.81;101134.75;4936401;28;46165;-59
2021/05/26 05:25:43;;;;;;;;;0.00;0.00;;;;;21.80;38.78;101136.44;4932678;28;45613;-57
2021/05/26 05:28:58;;;;;;;;;0.00;0.00;;;;;21.82;38.54;101144.31;4983548;28;45652;-57
2021/05/26 05:35:46;;;;;;;;;0.00;0.00;;;;;21.84;38.52;101159.19;4968710;28;45932;-58
2021/05/26 05:39:17;;;;;;;;;0.00;0.00;;;;;21.86;38.62;101165.25;4959307;28;45532;-58
2021/05/26 05:49:04;;;;;;;;;0.00;0.00;;;;;21.90;38.19;101165.88;4907076;28;45838;-58
2021/05/26 05:52:55;;;;;;;;;0.00;0.00;;;;;21.91;38.12;101167.56;4886962;29;45575;-58
2021/05/26 05:56:19;;;;;;;;;0.00;0.00;;;;;21.94;38.17;101177.13;4850933;29;45534;-57
2021/05/26 06:03:34;;;;;;;;;0.00;0.00;;;;;21.95;38.00;101194.78;4863860;29;45904;-57
2021/05/26 06:06:46;;;;;;;;;0.00;0.00;;;;;21.94;37.96;101191.28;4877265;29;45647;-57
2021/05/26 06:13:37;;;;;;;;;0.00;0.00;;;;;21.98;37.76;101211.34;4875047;29;45486;-58
2021/05/26 06:17:07;;;;;;;;;0.00;0.00;;;;;21.97;37.82;101209.66;4915593;28;45836;-57
2021/05/26 06:23:24;;;;;;;;;0.00;0.00;;;;;21.99;37.68;101225.50;4951868;28;45834;-57
2021/05/26 06:26:39;;;;;;;;;0.00;0.00;;;;;22.00;37.58;101232.50;4879782;28;45687;-58
2021/05/26 06:30:06;;;;;;;;;0.00;0.00;;;;;22.00;37.41;101236.03;4960410;28;46084;-57
2021/05/26 06:33:30;;;;;;;;;0.00;0.00;;;;;22.01;37.41;101250.16;4936234;28;45732;-58
2021/05/26 06:36:44;;;;;;;;;0.00;0.00;;;;;22.01;37.73;101259.00;4941954;28;45685;-58
2021/05/26 06:39:43;;;;;;;;;0.00;0.00;;;;;22.02;37.65;101250.06;4958541;28;45494;-57
2021/05/26 06:43:10;;;;;;;;;0.00;0.00;;;;;22.03;37.21;101264.22;5006069;28;45923;-58
2021/05/26 06:46:24;;;;;;;;;0.00;0.00;;;;;22.04;37.17;101265.91;4987703;28;45730;-57
2021/05/26 06:49:56;;;;;;;;;0.00;0.00;;;;;22.04;37.23;101271.22;4957168;28;45593;-57
2021/05/26 06:53:35;;;;;;;;;0.00;0.00;;;;;22.04;37.37;101282.69;4880121;29;45576;-57
2021/05/26 06:56:54;;;;;;;;;0.00;0.00;;;;;22.04;37.25;101284.53;4892063;29;45556;-57
2021/05/26 07:00:20;;;;;;;;;0.00;0.00;;;;;22.03;37.35;101293.47;4890369;29;45787;-57
2021/05/26 07:03:56;;;;;;;;;0.00;0.00;;;;;22.01;37.52;101306.03;4874238;29;45568;-57
2021/05/26 07:06:57;;;;;;;;;0.00;0.00;;;;;22.00;37.31;101318.50;4875663;29;45681;-57
2021/05/26 07:10:11;;;;;;;;;0.00;0.00;;;;;22.00;37.13;101310.50;4871762;29;45535;-57
2021/05/26 07:13:40;;;;;;;;;0.00;0.00;;;;;22.00;37.10;101312.31;4836644;29;45624;-57
2021/05/26 07:16:54;;;;;;;;;0.00;0.00;;;;;21.98;37.20;101309.75;4835521;29;45584;-58
2021/05/26 07:19:54;;;;;;;;;0.00;0.00;;;;;21.97;36.90;101318.69;4821625;29;45614;-57
2021/05/26 07:23:11;;;;;;;;;0.00;0.00;;;;;21.97;37.04;101317.88;4825200;29;46464;-57
2021/05/26 07:25:40;;;;;;;;;0.00;0.00;;;;;21.97;37.42;101317.88;4889351;29;45618;-57
2021/05/26 07:28:06;;;;;;;;;0.00;0.00;;;;;21.95;37.47;101315.31;4927055;28;45658;-57
2021/05/26 07:30:32;;;;;;;;;0.00;0.00;;;;;21.95;37.32;101327.75;4970565;28;45568;-57
2021/05/26 07:32:57;;;;;;;;;0.00;0.00;;;;;21.94;37.13;101326.06;4973359;28;46150;-57
2021/05/26 07:35:23;;;;;;;;;0.00;0.00;;;;;21.92;36.98;101335.97;4972378;28;54513;-57
2021/05/26 07:37:48;;;;;;;;;0.25;0.00;;;;;21.92;36.93;101330.66;4973055;28;45515;-57
2021/05/26 07:40:15;;;;;;;;;0.00;0.00;;;;;21.85;37.55;101331.06;4972392;28;45989;-58
2021/05/26 07:42:43;;;;;;;;;0.00;0.00;;;;;21.87;37.22;101338.94;4973405;28;46956;-57
2021/05/26 07:45:10;;;;;;;;;0.00;0.00;;;;;21.83;37.42;101332.13;4990698;28;45618;-57
2021/05/26 07:47:36;;;;;;;;;0.00;0.00;;;;;21.82;37.28;101333.09;5015554;28;45526;-58
2021/05/26 07:50:08;;;;;;;;;0.00;0.00;;;;;21.84;37.49;101336.50;5025988;28;45827;-57
2021/05/26 07:52:33;;;;;;;;;0.00;0.00;;;;;21.81;37.50;101324.28;5029729;28;47114;-57
2021/05/26 07:55:00;;;;;;;;;0.00;0.00;;;;;21.90;37.64;101344.88;5032135;28;45875;-57
2021/05/26 07:57:25;;;;;;;;;0.00;0.00;;;;;21.90;37.27;101342.22;5092244;27;45533;-57
2021/05/26 07:59:51;;;;;;;;;0.00;0.00;;;;;21.94;37.55;101342.88;5092174;27;45502;-57
2021/05/26 08:02:18;;;;;;;;;0.00;0.00;;;;;21.98;37.09;101349.66;5088122;27;46176;-57
2021/05/26 08:04:43;;;;;;;;;0.00;0.00;;;;;22.01;37.35;101362.75;5091224;27;45751;-57
2021/05/26 08:07:10;;;;;;;;;0.00;0.00;;;;;21.99;37.16;101345.19;5075113;28;45735;-57
2021/05/26 08:09:36;;;;;;;;;0.00;0.00;;;;;22.07;37.05;101353.44;5075224;28;45484;-57
2021/05/26 08:12:02;;;;;;;;;0.00;0.00;;;;;22.06;37.00;101343.78;5073725;27;45368;-57
2021/05/26 08:14:29;;;;;;;;;0.00;0.00;;;;;22.13;36.95;101355.69;5075542;27;45568;-57
2021/05/26 08:16:55;;;;;;;;;0.00;0.00;;;;;22.15;37.33;101360.88;5089166;27;45854;-58
2021/05/26 08:19:20;;;;;;;;;0.00;0.00;;;;;22.16;37.02;101358.09;5097631;27;45445;-57
2021/05/26 08:21:46;;;;;;;;;0.00;0.00;;;;;22.21;37.27;101367.56;5076740;27;45785;-57
2021/05/26 08:24:12;;;;;;;;;0.00;0.00;;;;;22.21;36.89;101368.44;5093242;27;53010;-57
2021/05/26 08:26:38;;;;;;;;;0.00;0.00;;;;;22.23;37.27;101365.63;5094605;27;45522;-57
2021/05/26 08:29:04;;;;;;;;;0.00;0.00;;;;;22.25;36.87;101377.88;5094848;27;45830;-58
2021/05/26 08:31:30;;;;;;;;;0.00;0.00;;;;;22.27;37.48;101372.44;5082168;27;46222;-57
2021/05/26 08:33:56;;;;;;;;;0.00;0.00;;;;;22.29;37.47;101381.19;5073573;28;46116;-59
2021/05/26 08:36:22;;;;;;;;;0.00;0.00;;;;;22.29;37.38;101382.00;5073929;27;45587;-61
2021/05/26 08:38:47;;;;;;;;;0.00;0.00;;;;;22.29;37.47;101371.38;5088636;27;45559;-58
2021/05/26 08:41:15;;;;;;;;;0.00;0.00;;;;;22.30;37.40;101373.06;5081758;27;45746;-57
2021/05/26 08:43:41;;;;;;;;;0.00;0.00;;;;;22.34;37.31;101378.19;5090616;27;45537;-56
2021/05/26 08:46:09;;;;;;;;;0.00;0.00;;;;;22.35;37.54;101382.53;5091378;27;47435;-57
2021/05/26 08:48:38;;;;;;;;;0.00;0.00;;;;;22.36;37.78;101386.88;5088357;27;45540;-56
2021/05/26 08:51:06;;;;;;;;;0.00;0.00;;;;;22.38;37.48;101391.13;5090820;27;46101;-57
2021/05/26 08:53:33;;;;;;;;;0.00;0.00;;;;;22.40;37.20;101383.03;5091397;27;45882;-57
2021/05/26 08:55:59;;;;;;;;;0.00;0.00;;;;;22.40;37.42;101380.38;5092262;27;45836;-56
2021/05/26 08:58:25;;;;;;;;;0.00;0.00;;;;;22.42;37.37;101386.47;5094250;27;45628;-56
2021/05/26 09:00:50;;;;;;;;;0.00;0.00;;;;;22.44;37.86;101373.88;5096544;27;46461;-60
2021/05/26 09:03:16;;;;;;;;;0.00;0.00;;;;;22.37;37.34;101370.81;5079036;27;45530;-56
2021/05/26 09:05:44;;;;;;;;;0.00;0.00;;;;;22.46;37.21;101384.41;5077804;27;45597;-57
2021/05/26 09:08:21;;;;;;;;;0.00;0.00;;;;;22.47;37.42;101383.44;5090391;27;45525;-57
2021/05/26 09:11:00;;;;;;;;;0.00;0.00;;;;;22.45;37.64;101378.22;5089692;27;45598;-58
2021/05/26 09:13:30;;;;;;;;;0.00;0.00;;;;;22.43;37.53;101381.00;5083864;27;45751;-58
2021/05/26 09:15:58;;;;;;;;;0.00;0.00;;;;;22.41;37.61;101377.63;5085007;27;45746;-59
2021/05/26 09:18:24;;;;;;;;;0.00;0.00;;;;;22.41;37.80;101385.59;5088206;27;45488;-58
2021/05/26 09:20:50;;;;;;;;;0.00;0.00;;;;;22.39;37.24;101379.56;5080186;27;45539;-58
2021/05/26 09:23:20;;;;;;;;;0.00;0.00;;;;;22.36;37.17;101379.75;5093118;27;45431;-57
2021/05/26 09:25:46;;;;;;;;;0.00;0.00;;;;;22.35;37.30;101385.19;5092001;27;45737;-57
2021/05/26 09:28:21;;;;;;;;;0.00;0.00;;;;;22.34;37.63;101395.00;5091606;27;45540;-57
2021/05/26 09:30:58;;;;;;;;;0.00;0.00;;;;;22.33;37.54;101390.63;5071237;27;47645;-56
2021/05/26 09:33:44;;;;;;;;;0.00;0.00;;;;;22.32;37.49;101388.94;5093167;27;45458;-57
2021/05/26 09:36:24;;;;;;;;;0.00;0.00;;;;;22.30;37.98;101381.03;5089556;27;45924;-57
2021/05/26 09:38:58;;;;;;;;;0.00;0.00;;;;;22.29;37.32;101403.31;5092354;27;45576;-57
2021/05/26 09:41:31;;;;;;;;;0.00;0.00;;;;;22.29;37.22;101402.47;5092433;27;47317;-57
2021/05/26 09:43:59;;;;;;;;;0.00;0.00;;;;;22.28;37.18;101390.09;5091398;27;45711;-59
2021/05/26 09:46:36;;;;;;;;;0.00;0.00;;;;;22.27;37.37;101391.94;5091785;27;45948;-57
2021/05/26 09:49:04;;;;;;;;;0.00;0.00;;;;;22.26;37.38;101410.66;5090951;27;45676;-57
2021/05/26 09:51:32;;;;;;;;;0.00;0.00;;;;;22.16;37.77;101391.88;5092489;27;46319;-57
2021/05/26 09:54:12;;;;;;;;;0.00;0.00;;;;;22.25;37.79;101408.97;5078715;27;45675;-60
2021/05/26 09:56:41;;;;;;;;;0.00;0.00;;;;;22.24;37.83;101410.75;5072902;27;45745;-58
2021/05/26 09:59:07;;;;;;;;;0.00;0.00;;;;;22.24;37.57;101416.09;5080831;27;45533;-58
2021/05/26 10:01:35;;;;;;;;;0.00;0.00;;;;;22.23;37.55;101413.53;5075408;27;46182;-59
2021/05/26 10:04:02;;;;;;;;;0.00;0.00;;;;;22.22;37.54;101415.34;5073227;27;45474;-60
2021/05/26 10:06:29;;;;;;;;;0.00;0.00;;;;;22.21;38.02;101421.66;5072455;27;45552;-58
2021/05/26 10:08:58;;;;;;;;;0.00;0.00;;;;;22.22;37.63;101419.81;5079635;27;45769;-58
2021/05/26 10:11:32;;;;;;;;;0.00;0.00;;;;;22.21;37.29;101405.69;5088112;27;47030;-57
2021/05/26 10:14:03;;;;;;;;;0.00;0.00;;;;;22.22;37.48;101423.34;5090245;27;45711;-59
2021/05/26 10:16:32;;;;;;;;;0.00;0.00;;;;;22.23;37.93;101421.50;5089399;27;45557;-57
2021/05/26 10:19:01;;;;;;;;;0.00;0.00;;;;;22.22;37.32;101418.03;5086444;27;45622;-56
2021/05/26 10:21:27;;;;;;;;;0.00;0.00;;;;;22.22;37.48;101423.34;5091690;27;47149;-56
2021/05/26 10:23:54;;;;;;;;;0.75;0.00;;;;;22.22;37.73;101423.34;5091690;27;45776;-59
2021/05/26 10:26:48;;;;;;;;;0.00;0.00;;;;;22.21;37.22;101424.31;5088827;27;45521;-58
2021/05/26 10:29:39;;;;;;;;;0.00;0.00;;;;;22.21;37.92;101431.44;5080853;27;45706;-58
2021/05/26 10:32:15;;;;;;;;;0.00;0.00;;;;;22.20;37.27;101441.22;5070375;28;46357;-57
2021/05/26 10:34:46;;;;;;;;;0.00;0.00;;;;;22.20;37.45;101440.38;5088602;27;45733;-56
2021/05/26 10:37:33;;;;;;;;;0.00;0.00;;;;;22.19;37.96;101430.69;5081361;27;45859;-57
2021/05/26 10:40:00;;;;;;;;;0.00;0.00;;;;;22.20;37.92;101429.72;5090380;27;45714;-58
2021/05/26 10:42:33;;;;;;;;;0.00;0.00;;;;;22.20;37.52;101427.06;5088724;27;47281;-57
2021/05/26 10:45:09;;;;;;;;;0.00;0.00;;;;;22.21;37.22;101428.78;5088979;27;45526;-56
2021/05/26 10:47:38;;;;;;;;;0.00;0.00;;;;;22.20;37.75;101424.41;5091969;27;45545;-56
2021/05/26 10:50:04;;;;;;;;;0.00;0.00;;;;;22.21;37.50;101439.41;5096193;27;45466;-56
2021/05/26 10:52:57;;;;;;;;;0.00;0.00;;;;;22.20;37.65;101430.56;5098447;27;46740;-57
2021/05/26 10:55:35;;;;;;;;;0.00;0.00;;;;;22.22;37.85;101435.78;5077957;27;45821;-57
2021/05/26 10:58:34;;;;;;;;;0.00;0.00;;;;;22.23;37.70;101433.03;5080427;27;45600;-58
2021/05/26 11:01:05;;;;;;;;;0.00;0.00;;;;;22.25;37.72;101425.75;5091854;27;45430;-56
2021/05/26 11:03:44;;;;;;;;;0.00;0.00;;;;;22.26;37.79;101424.84;5091495;27;46206;-56
2021/05/26 11:06:13;;;;;;;;;0.00;0.00;;;;;22.27;37.81;101413.22;5103886;27;45416;-56
2021/05/26 11:08:42;;;;;;;;;0.00;0.00;;;;;22.29;37.51;101443.22;5086658;27;45406;-57
2021/05/26 11:11:33;;;;;;;;;0.00;0.00;;;;;22.30;37.54;101436.94;5096444;27;45895;-56
2021/05/26 11:14:18;;;;;;;;;0.00;0.00;;;;;22.30;37.21;101436.94;5104001;27;46361;-57
2021/05/26 11:16:47;;;;;;;;;0.00;0.00;;;;;22.30;37.69;101433.44;5106985;27;45797;-57
2021/05/26 11:19:30;;;;;;;;;0.00;0.00;;;;;22.31;37.83;101432.47;5090432;27;45619;-56
2021/05/26 11:22:00;;;;;;;;;0.00;0.00;;;;;22.31;37.82;101421.81;5086222;27;45787;-58
2021/05/26 11:24:26;;;;;;;;;0.00;0.00;;;;;22.32;37.32;101420.84;5090827;27;46360;-57
2021/05/26 11:26:52;;;;;;;;;0.00;0.00;;;;;22.32;37.68;101418.19;5090858;27;45706;-57
2021/05/26 11:29:30;;;;;;;;;0.00;0.00;;;;;22.34;37.51;101420.75;5091258;27;45515;-57
2021/05/26 11:32:12;;;;;;;;;0.00;0.00;;;;;22.35;37.81;101417.13;5089347;27;45485;-59
2021/05/26 11:34:40;;;;;;;;;3.00;1.50;;;;;22.36;37.78;101425.00;5078543;27;46006;-56
2021/05/26 11:37:07;;;;;;;;;1.25;1.25;;;;;22.40;38.06;101430.94;5091136;27;45694;-57
2021/05/26 11:39:34;;;;;;;;;1.50;1.50;;;;;22.42;37.84;101427.22;5099066;27;45721;-57
2021/05/26 11:42:16;;;;;;;;;3.00;1.50;;;;;22.46;37.83;101430.50;5096881;27;45573;-58
2021/05/26 11:44:53;;;;;;;;;1.00;0.75;;;;;22.49;37.61;101427.63;5079313;27;46350;-55
2021/05/26 11:47:47;;;;;;;;;2.50;1.50;;;;;22.51;38.06;101435.50;5091820;27;45850;-57
2021/05/26 11:50:15;;;;;;;;;1.75;1.75;;;;;22.52;37.70;101432.75;5091057;27;45559;-56
2021/05/26 11:52:41;;;;;;;;;1.25;1.25;;;;;22.53;37.88;101431.81;5089704;27;45878;-56
2021/05/26 11:55:09;;;;;;;;;1.00;1.00;;;;;22.55;37.53;101431.69;5088798;27;47136;-57
2021/05/26 11:57:42;;;;;;;;;0.00;0.00;;;;;22.57;37.97;101429.75;5084665;27;45842;-56
2021/05/26 12:00:25;;;;;;;;;2.00;1.00;;;;;22.59;38.05;101427.00;5066362;27;45897;-57
2021/05/26 12:03:04;;;;;;;;;0.00;0.00;;;;;22.60;37.87;101421.56;5087621;27;45548;-58
2021/05/26 12:05:48;;;;;;;;;1.00;1.00;;;;;22.62;37.62;101424.94;5076570;27;46956;-57
2021/05/26 12:08:21;;;;;;;;;0.00;0.00;;;;;22.64;37.81;101416.84;5084704;27;45822;-57
2021/05/26 12:10:58;;;;;;;;;1.50;0.75;;;;;22.65;38.21;101424.75;5094013;27;45636;-57
2021/05/26 12:13:34;;;;;;;;;0.00;0.00;;;;;22.66;38.07;101430.91;5083657;27;48377;-58
2021/05/26 12:16:04;;;;;;;;;0.00;0.00;;;;;22.66;37.98;101420.25;5084625;27;46190;-56
2021/05/26 12:18:30;;;;;;;;;0.00;0.00;;;;;22.68;38.25;101416.50;5086941;27;45774;-58
2021/05/26 12:20:57;;;;;;;;;0.00;0.00;;;;;22.73;37.76;101431.28;5095953;27;45834;-58
2021/05/26 12:23:39;;;;;;;;;0.00;0.00;;;;;22.75;38.44;101421.38;5093083;27;45641;-58
2021/05/26 12:26:31;;;;;;;;;0.00;0.00;;;;;22.79;38.18;101426.38;5083762;27;47444;-58
2021/05/26 12:29:08;;;;;;;;;0.00;0.00;;;;;22.75;37.94;101413.38;5082041;27;45696;-57
2021/05/26 12:31:35;;;;;;;;;0.00;0.00;;;;;22.84;38.10;101436.66;5094051;27;45633;-57
2021/05/26 12:34:01;;;;;;;;;0.00;0.00;;;;;22.87;38.32;101435.59;5092895;27;45576;-58
2021/05/26 12:36:31;;;;;;;;;0.00;0.00;;;;;22.89;37.87;101429.19;5084256;27;46919;-57
2021/05/26 12:39:04;;;;;;;;;0.00;0.00;;;;;22.90;38.31;101438.88;5080229;27;45459;-56
2021/05/26 12:41:35;;;;;;;;;0.00;0.00;;;;;22.92;37.99;101436.97;5080092;27;45970;-58
2021/05/26 12:44:19;;;;;;;;;0.00;0.00;;;;;22.94;38.06;101431.50;5084240;27;45590;-59
2021/05/26 12:46:56;;;;;;;;;0.00;0.00;;;;;22.98;38.01;101435.63;5088767;27;46930;-58
2021/05/26 12:49:33;;;;;;;;;0.00;0.00;;;;;22.99;38.45;101434.66;5086841;27;45905;-58
2021/05/26 12:52:01;;;;;;;;;0.00;0.00;;;;;23.01;38.24;101434.56;5084980;27;46067;-58
2021/05/26 12:54:27;;;;;;;;;1.00;0.00;;;;;23.02;38.21;101434.44;5079592;27;45524;-58
2021/05/26 12:57:10;;;;;;;;;0.00;0.00;;;;;23.03;38.24;101430.81;5092228;27;46056;-57
2021/05/26 12:59:38;;;;;;;;;0.00;0.00;;;;;23.05;37.98;101439.56;5093252;27;45813;-57
2021/05/26 13:02:08;;;;;;;;;0.00;0.00;;;;;23.07;38.21;101434.09;5082539;27;46472;-60
2021/05/26 13:04:35;;;;;;;;;0.75;0.00;;;;;23.08;38.47;101430.50;5087792;27;49359;-58
2021/05/26 13:07:01;;;;;;;;;0.00;0.00;;;;;22.92;37.83;101406.81;5071571;27;46256;-57
2021/05/26 13:09:37;;;;;;;;;0.00;0.00;;;;;23.11;38.42;101432.91;5090520;27;47299;-58
2021/05/26 13:12:21;;;;;;;;;0.00;0.00;;;;;23.13;38.62;101446.97;5082625;27;45608;-60
2021/05/26 13:14:46;;;;;;;;;0.00;0.00;;;;;23.15;38.04;101442.38;5086965;27;45477;-58
2021/05/26 13:17:12;;;;;;;;;0.00;0.00;;;;;23.17;38.52;101439.59;5088044;27;46172;-57